Time;durP1;ratioP1;P1;durP2;ratioP2;P2;SDS_P1;SDS_P2;PMS_P1;PMS_P2;Temp;Humidity;BMP_temperature;BMP_pressure;BME280_temperature;BME280_humidity;BME280_pressure;Samples;Min_cycle;Max_cycle;Signal;HPM_P1;HPM_P2
2023/04/21 00:01:43;;;;;;;24.97;22.40;;;;;;;;;;5052025;28;20455;-76
2023/04/21 00:04:16;;;;;;;25.27;21.83;;;;;;;;;;5051984;28;20461;-76
2023/04/21 00:07:00;;;;;;;26.20;23.50;;;;;;;;;;5052132;28;20476;-75
2023/04/21 00:09:53;;;;;;;25.70;23.00;;;;;;;;;;5051597;28;20460;-75
2023/04/21 00:12:26;;;;;;;24.60;21.80;;;;;;;;;;5050208;28;20463;-76
2023/04/21 00:14:59;;;;;;;24.63;21.90;;;;;;;;;;5051428;28;20477;-75
2023/04/21 00:17:35;;;;;;;25.77;23.10;;;;;;;;;;5051530;28;20504;-76
2023/04/21 00:20:07;;;;;;;24.97;22.37;;;;;;;;;;5051197;28;20484;-76
2023/04/21 00:22:40;;;;;;;27.00;24.10;;;;;;;;;;5050985;28;20458;-75
2023/04/21 00:25:08;;;;;;;26.97;23.00;;;;;;;;;;5051937;28;20484;-77
2023/04/21 00:27:38;;;;;;;26.83;23.93;;;;;;;;;;5051684;28;20470;-76
2023/04/21 00:30:11;;;;;;;28.43;24.37;;;;;;;;;;5052607;28;20986;-76
2023/04/21 00:32:46;;;;;;;26.37;23.63;;;;;;;;;;5052213;28;20458;-76
2023/04/21 00:35:29;;;;;;;26.43;23.40;;;;;;;;;;5052180;28;20471;-76
2023/04/21 00:38:09;;;;;;;26.60;23.73;;;;;;;;;;5050699;28;20529;-76
2023/04/21 00:40:49;;;;;;;25.90;23.20;;;;;;;;;;5052133;28;20700;-77
2023/04/21 00:43:20;;;;;;;26.10;23.50;;;;;;;;;;5051192;28;21008;-76
2023/04/21 00:45:48;;;;;;;25.07;22.47;;;;;;;;;;5051564;28;20477;-76
2023/04/21 00:48:20;;;;;;;24.90;22.20;;;;;;;;;;5050903;28;20477;-76
2023/04/21 00:50:52;;;;;;;24.43;21.70;;;;;;;;;;5051279;28;20543;-77
2023/04/21 00:53:29;;;;;;;26.00;22.50;;;;;;;;;;5050940;28;20458;-76
2023/04/21 00:55:59;;;;;;;25.27;21.40;;;;;;;;;;5049920;28;20724;-76
2023/04/21 00:58:31;;;;;;;25.90;23.07;;;;;;;;;;5052321;28;20577;-76
2023/04/21 01:01:21;;;;;;;26.13;23.33;;;;;;;;;;5052022;28;20869;-76
2023/04/21 01:03:58;;;;;;;25.17;22.43;;;;;;;;;;5053697;28;20539;-76
2023/04/21 01:06:36;;;;;;;23.30;20.97;;;;;;;;;;5055348;28;20512;-76
2023/04/21 01:09:30;;;;;;;25.30;22.70;;;;;;;;;;5055295;28;21019;-78
2023/04/21 01:15:29;;;;;;;24.37;21.83;;;;;;;;;;5036777;28;20435;-76
2023/04/21 01:18:13;;;;;;;25.13;21.90;;;;;;;;;;5065589;28;20927;-76
2023/04/21 01:20:53;;;;;;;23.67;21.13;;;;;;;;;;5066673;28;20461;-74
2023/04/21 01:29:47;;;;;;;24.30;21.70;;;;;;;;;;5126913;28;20454;-74
2023/04/21 01:32:25;;;;;;;24.40;21.80;;;;;;;;;;5126189;28;20434;-77
2023/04/21 01:35:07;;;;;;;25.40;22.87;;;;;;;;;;5126459;28;20465;-76
2023/04/21 01:37:47;;;;;;;23.80;21.03;;;;;;;;;;5125113;28;20540;-75
2023/04/21 01:40:17;;;;;;;27.97;23.37;;;;;;;;;;5125900;28;20650;-75
2023/04/21 01:42:56;;;;;;;25.63;22.03;;;;;;;;;;5125897;28;20490;-75
2023/04/21 01:45:24;;;;;;;25.20;22.50;;;;;;;;;;5126535;28;20467;-75
2023/04/21 01:47:57;;;;;;;24.77;22.03;;;;;;;;;;5126831;28;20527;-75
2023/04/21 01:50:30;;;;;;;25.77;21.80;;;;;;;;;;5126493;28;20451;-75
2023/04/21 01:53:16;;;;;;;22.90;20.53;;;;;;;;;;5127016;28;20453;-76
2023/04/21 01:56:11;;;;;;;21.43;19.10;;;;;;;;;;5125748;28;20439;-75
2023/04/21 01:58:52;;;;;;;24.07;21.50;;;;;;;;;;5051126;28;20442;-76
2023/04/21 02:01:27;;;;;;;23.20;20.80;;;;;;;;;;5120928;28;20471;-75
2023/04/21 02:04:12;;;;;;;24.10;20.67;;;;;;;;;;5121320;28;20449;-75
2023/04/21 02:06:44;;;;;;;24.30;21.53;;;;;;;;;;5120420;28;20447;-75
2023/04/21 02:12:36;;;;;;;23.17;20.70;;;;;;;;;;5071227;28;20605;-76
2023/04/21 02:20:48;;;;;;;25.93;20.90;;;;;;;;;;5098739;27;20446;-75
2023/04/21 02:26:26;;;;;;;;;;;;;;;;;;;;;
2023/04/21 02:29:10;;;;;;;22.50;20.10;;;;;;;;;;5139630;28;20442;-75
2023/04/21 02:31:54;;;;;;;22.53;20.13;;;;;;;;;;5134845;28;20450;-75
2023/04/21 02:34:27;;;;;;;22.20;19.10;;;;;;;;;;5132264;27;20442;-75
2023/04/21 02:37:03;;;;;;;21.77;19.50;;;;;;;;;;5123781;28;20505;-76
2023/04/21 02:39:35;;;;;;;22.53;20.13;;;;;;;;;;5119688;28;20447;-76
2023/04/21 02:42:07;;;;;;;21.97;19.13;;;;;;;;;;5119207;28;20475;-75
2023/04/21 02:44:53;;;;;;;22.60;20.20;;;;;;;;;;5119268;28;20486;-75
2023/04/21 02:47:37;;;;;;;20.70;18.53;;;;;;;;;;5118628;28;20496;-76
2023/04/21 02:50:21;;;;;;;22.63;20.00;;;;;;;;;;5118660;28;20453;-75
2023/04/21 02:52:54;;;;;;;25.87;21.20;;;;;;;;;;5120318;28;20442;-77
2023/04/21 02:55:30;;;;;;;25.40;20.43;;;;;;;;;;5119107;28;20443;-76
2023/04/21 02:57:58;;;;;;;22.60;19.70;;;;;;;;;;5119371;28;20494;-76
2023/04/21 03:03:16;;;;;;;27.10;22.00;;;;;;;;;;5118535;28;20419;-75
2023/04/21 03:05:46;;;;;;;25.97;23.17;;;;;;;;;;5121862;28;20471;-75
2023/04/21 03:08:15;;;;;;;25.70;22.97;;;;;;;;;;5120400;28;20467;-75
2023/04/21 03:10:50;;;;;;;26.20;22.90;;;;;;;;;;5124175;28;20496;-75
2023/04/21 03:13:24;;;;;;;25.27;22.47;;;;;;;;;;5122522;28;20453;-76
2023/04/21 03:15:53;;;;;;;23.47;20.97;;;;;;;;;;5119233;28;20451;-75
2023/04/21 03:18:24;;;;;;;22.63;20.23;;;;;;;;;;5110123;28;20483;-75
2023/04/21 03:21:02;;;;;;;23.70;20.17;;;;;;;;;;5098869;28;20455;-75
2023/04/21 03:23:30;;;;;;;25.20;20.73;;;;;;;;;;5099893;28;20474;-76
2023/04/21 03:26:07;;;;;;;22.80;20.47;;;;;;;;;;5099224;28;20487;-76
2023/04/21 03:28:39;;;;;;;24.57;20.60;;;;;;;;;;5100034;28;20551;-76
2023/04/21 03:31:12;;;;;;;21.63;19.33;;;;;;;;;;5099713;28;20427;-75
2023/04/21 03:33:40;;;;;;;23.23;20.73;;;;;;;;;;5100647;28;20454;-75
2023/04/21 03:36:23;;;;;;;23.50;19.50;;;;;;;;;;5100458;28;20680;-76
2023/04/21 03:38:54;;;;;;;24.80;21.10;;;;;;;;;;5095108;28;20444;-75
2023/04/21 03:41:22;;;;;;;23.97;21.07;;;;;;;;;;5094424;28;20969;-76
2023/04/21 03:43:53;;;;;;;27.03;20.73;;;;;;;;;;5093910;28;20482;-75
2023/04/21 03:46:29;;;;;;;23.40;20.83;;;;;;;;;;5093455;28;20503;-75
2023/04/21 03:49:01;;;;;;;23.63;20.63;;;;;;;;;;5092455;28;20448;-76
2023/04/21 03:51:32;;;;;;;23.70;20.80;;;;;;;;;;5093048;28;20452;-75
2023/04/21 03:54:07;;;;;;;24.07;20.10;;;;;;;;;;5093929;28;20459;-76
2023/04/21 03:56:40;;;;;;;23.70;21.17;;;;;;;;;;5093939;28;21057;-75
2023/04/21 03:59:09;;;;;;;25.27;21.53;;;;;;;;;;5093713;28;20455;-75
2023/04/21 04:01:37;;;;;;;27.97;23.43;;;;;;;;;;5094838;28;20452;-76
2023/04/21 04:04:21;;;;;;;28.23;25.10;;;;;;;;;;5094991;28;20455;-75
2023/04/21 04:06:52;;;;;;;25.23;21.13;;;;;;;;;;5093082;28;20552;-75
2023/04/21 04:09:24;;;;;;;26.40;22.50;;;;;;;;;;5092487;28;20487;-75
2023/04/21 04:11:55;;;;;;;23.27;20.70;;;;;;;;;;5092414;28;20876;-75
2023/04/21 04:14:43;;;;;;;24.93;21.13;;;;;;;;;;5092232;28;20452;-75
2023/04/21 04:17:15;;;;;;;24.87;22.20;;;;;;;;;;5092336;28;20472;-75
2023/04/21 04:19:48;;;;;;;25.00;20.67;;;;;;;;;;5112908;28;20473;-75
2023/04/21 04:22:18;;;;;;;27.03;20.33;;;;;;;;;;5112790;28;20455;-76
2023/04/21 04:24:46;;;;;;;25.27;21.90;;;;;;;;;;5112369;28;20469;-76
2023/04/21 04:27:19;;;;;;;25.30;21.27;;;;;;;;;;5114175;28;20470;-75
2023/04/21 04:29:48;;;;;;;25.27;21.97;;;;;;;;;;5115535;28;21242;-76
2023/04/21 04:32:22;;;;;;;28.17;22.70;;;;;;;;;;5114862;28;20898;-76
2023/04/21 04:34:54;;;;;;;25.53;21.10;;;;;;;;;;5113710;28;20488;-76
2023/04/21 04:37:24;;;;;;;23.83;20.60;;;;;;;;;;5113474;28;20565;-77
2023/04/21 04:39:56;;;;;;;25.00;20.93;;;;;;;;;;5114524;28;20459;-76
2023/04/21 04:42:27;;;;;;;24.70;21.00;;;;;;;;;;5116120;28;20930;-76
2023/04/21 04:45:05;;;;;;;26.67;22.83;;;;;;;;;;5116494;28;20472;-75
2023/04/21 04:47:33;;;;;;;23.30;20.80;;;;;;;;;;5116263;28;20450;-75
2023/04/21 04:50:02;;;;;;;25.27;21.80;;;;;;;;;;5115691;28;20474;-77
2023/04/21 04:52:33;;;;;;;25.60;20.33;;;;;;;;;;5114442;28;20475;-77
2023/04/21 04:55:00;;;;;;;28.77;21.70;;;;;;;;;;5114185;28;20485;-76
2023/04/21 04:57:28;;;;;;;24.70;21.57;;;;;;;;;;5112973;28;20481;-76
2023/04/21 04:59:58;;;;;;;26.30;22.37;;;;;;;;;;5117138;28;20447;-77
2023/04/21 05:02:27;;;;;;;26.47;21.33;;;;;;;;;;5117174;28;20474;-76
2023/04/21 05:04:55;;;;;;;27.83;22.70;;;;;;;;;;5118940;28;20938;-76
2023/04/21 05:07:23;;;;;;;25.23;21.30;;;;;;;;;;5119646;28;20478;-76
2023/04/21 05:09:53;;;;;;;29.47;24.00;;;;;;;;;;5119408;28;20427;-77
2023/04/21 05:12:21;;;;;;;27.20;22.77;;;;;;;;;;5123136;28;20477;-77
2023/04/21 05:14:49;;;;;;;28.67;22.50;;;;;;;;;;5122899;28;20469;-76
2023/04/21 05:17:18;;;;;;;28.57;24.23;;;;;;;;;;5120590;28;20505;-77
2023/04/21 05:19:48;;;;;;;27.10;23.47;;;;;;;;;;5116723;28;20451;-76
2023/04/21 05:22:19;;;;;;;30.07;23.00;;;;;;;;;;5117816;28;20958;-76
2023/04/21 05:24:47;;;;;;;28.90;23.80;;;;;;;;;;5121294;28;21029;-77
2023/04/21 05:27:16;;;;;;;31.07;24.37;;;;;;;;;;5116923;28;20518;-76
2023/04/21 05:29:44;;;;;;;30.53;25.47;;;;;;;;;;5120927;28;20538;-78
2023/04/21 05:32:12;;;;;;;32.43;26.00;;;;;;;;;;5125688;28;20593;-76
2023/04/21 05:34:40;;;;;;;30.70;25.60;;;;;;;;;;5125207;28;20518;-77
2023/04/21 05:37:08;;;;;;;31.77;25.40;;;;;;;;;;5125057;28;20447;-75
2023/04/21 05:39:36;;;;;;;34.03;26.07;;;;;;;;;;5124119;28;20461;-77
2023/04/21 05:42:04;;;;;;;31.57;25.70;;;;;;;;;;5130286;28;20473;-78
2023/04/21 05:44:33;;;;;;;30.93;24.40;;;;;;;;;;5131117;28;20443;-76
2023/04/21 05:47:11;;;;;;;34.23;26.33;;;;;;;;;;5126306;28;20557;-77
2023/04/21 05:49:48;;;;;;;31.73;24.87;;;;;;;;;;5124390;28;20443;-77
2023/04/21 05:52:17;;;;;;;31.27;26.00;;;;;;;;;;5123528;28;20455;-76
2023/04/21 05:54:49;;;;;;;29.53;26.30;;;;;;;;;;5124215;28;20887;-76
2023/04/21 05:57:19;;;;;;;29.67;24.20;;;;;;;;;;5123659;28;20542;-76
2023/04/21 05:59:49;;;;;;;34.03;26.83;;;;;;;;;;5125325;28;20454;-78
2023/04/21 06:02:18;;;;;;;35.83;27.13;;;;;;;;;;5118444;28;20486;-76
2023/04/21 06:04:47;;;;;;;38.40;29.07;;;;;;;;;;5117287;28;20460;-77
2023/04/21 06:07:20;;;;;;;33.93;27.43;;;;;;;;;;5117783;28;20502;-76
2023/04/21 06:09:51;;;;;;;33.23;27.07;;;;;;;;;;5118304;28;20473;-78
2023/04/21 06:12:19;;;;;;;36.67;29.20;;;;;;;;;;5119139;28;20446;-79
2023/04/21 06:14:56;;;;;;;39.40;30.13;;;;;;;;;;5121343;28;20447;-76
2023/04/21 06:17:25;;;;;;;39.57;29.20;;;;;;;;;;5121202;28;20556;-77
2023/04/21 06:20:00;;;;;;;34.00;27.20;;;;;;;;;;5120741;28;20489;-77
2023/04/21 06:22:31;;;;;;;37.00;28.03;;;;;;;;;;5120610;28;20454;-78
2023/04/21 06:24:59;;;;;;;37.37;28.77;;;;;;;;;;5118602;28;20453;-78
2023/04/21 06:27:28;;;;;;;32.30;27.10;;;;;;;;;;5118439;28;20490;-78
2023/04/21 06:30:00;;;;;;;38.03;29.40;;;;;;;;;;5116460;28;20522;-77
2023/04/21 06:32:27;;;;;;;38.53;27.37;;;;;;;;;;5116311;28;20446;-77
2023/04/21 06:34:56;;;;;;;34.13;27.73;;;;;;;;;;5116797;28;20512;-77
2023/04/21 06:37:24;;;;;;;36.83;28.20;;;;;;;;;;5115595;28;20498;-76
2023/04/21 06:39:55;;;;;;;39.47;28.73;;;;;;;;;;5117693;28;20449;-75
2023/04/21 06:42:38;;;;;;;34.60;27.03;;;;;;;;;;5117986;28;20457;-77
2023/04/21 06:45:16;;;;;;;34.43;27.43;;;;;;;;;;5117398;28;20458;-76
2023/04/21 06:48:04;;;;;;;33.43;26.63;;;;;;;;;;5118278;28;20485;-77
2023/04/21 06:50:34;;;;;;;31.93;26.40;;;;;;;;;;5108855;28;20475;-76
2023/04/21 06:53:17;;;;;;;32.77;26.57;;;;;;;;;;5121413;28;20568;-77
2023/04/21 06:55:53;;;;;;;35.40;26.27;;;;;;;;;;5121082;28;20450;-77
2023/04/21 06:58:32;;;;;;;36.23;28.57;;;;;;;;;;5119875;28;20474;-77
2023/04/21 07:01:09;;;;;;;31.33;25.50;;;;;;;;;;5121598;27;20849;-76
2023/04/21 07:03:39;;;;;;;32.53;26.10;;;;;;;;;;5124072;28;20450;-77
2023/04/21 07:06:08;;;;;;;31.10;26.60;;;;;;;;;;5120817;28;20485;-77
2023/04/21 07:08:40;;;;;;;32.03;25.87;;;;;;;;;;5120675;28;20467;-77
2023/04/21 07:11:11;;;;;;;32.03;25.90;;;;;;;;;;5121221;28;20624;-76
2023/04/21 07:13:39;;;;;;;34.20;26.30;;;;;;;;;;5122409;28;20447;-76
2023/04/21 07:19:04;;;;;;;32.40;26.00;;;;;;;;;;5104024;28;20822;-76
2023/04/21 07:21:44;;;;;;;32.67;26.93;;;;;;;;;;5097720;28;20463;-77
2023/04/21 07:24:16;;;;;;;28.60;24.20;;;;;;;;;;5094960;28;20536;-75
2023/04/21 07:26:46;;;;;;;29.70;24.03;;;;;;;;;;5094326;28;20568;-77
2023/04/21 07:29:17;;;;;;;30.27;25.50;;;;;;;;;;5094488;28;20522;-77
2023/04/21 07:31:48;;;;;;;31.57;25.90;;;;;;;;;;5095158;28;20440;-77
2023/04/21 07:34:16;;;;;;;29.43;23.20;;;;;;;;;;5094855;28;20447;-77
2023/04/21 07:36:44;;;;;;;25.10;21.40;;;;;;;;;;5094551;28;20493;-76
2023/04/21 07:39:13;;;;;;;22.80;20.30;;;;;;;;;;5093902;28;20495;-76
2023/04/21 07:41:41;;;;;;;23.13;20.60;;;;;;;;;;5093838;28;20476;-78
2023/04/21 07:44:09;;;;;;;23.83;21.17;;;;;;;;;;5093284;28;20884;-76
2023/04/21 07:46:40;;;;;;;24.83;22.13;;;;;;;;;;5093062;28;20480;-76
2023/04/21 07:49:09;;;;;;;24.60;20.93;;;;;;;;;;5093536;28;20452;-75
2023/04/21 07:51:39;;;;;;;25.83;22.57;;;;;;;;;;5093565;28;20469;-76
2023/04/21 07:54:10;;;;;;;23.57;20.30;;;;;;;;;;5092754;28;20455;-76
2023/04/21 07:56:41;;;;;;;22.00;19.60;;;;;;;;;;5093211;28;20495;-76
2023/04/21 07:59:10;;;;;;;23.60;19.70;;;;;;;;;;5093386;28;20471;-75
2023/04/21 08:01:38;;;;;;;22.87;20.47;;;;;;;;;;5094245;28;20444;-75
2023/04/21 08:04:08;;;;;;;21.83;19.50;;;;;;;;;;5093758;28;20539;-75
2023/04/21 08:06:37;;;;;;;22.57;19.63;;;;;;;;;;5093688;28;20537;-76
2023/04/21 08:09:09;;;;;;;21.87;18.40;;;;;;;;;;5093713;28;21033;-76
2023/04/21 08:11:46;;;;;;;20.40;18.17;;;;;;;;;;5094064;28;20513;-74
2023/04/21 08:14:19;;;;;;;19.57;17.40;;;;;;;;;;5093803;28;20451;-76
2023/04/21 08:16:51;;;;;;;19.53;16.33;;;;;;;;;;5093919;28;20494;-76
2023/04/21 08:19:19;;;;;;;17.70;15.97;;;;;;;;;;5093162;28;20470;-76
2023/04/21 08:21:52;;;;;;;17.90;16.10;;;;;;;;;;5094082;28;20455;-77
2023/04/21 08:24:30;;;;;;;18.33;16.37;;;;;;;;;;5094715;28;20566;-75
2023/04/21 08:27:25;;;;;;;20.43;18.23;;;;;;;;;;5096736;28;20653;-76
2023/04/21 08:30:01;;;;;;;18.27;16.23;;;;;;;;;;5093334;28;20440;-75
2023/04/21 08:32:36;;;;;;;16.97;15.27;;;;;;;;;;5099207;28;20447;-77
2023/04/21 08:35:05;;;;;;;18.20;16.40;;;;;;;;;;5099535;28;20496;-77
2023/04/21 08:37:37;;;;;;;17.53;15.83;;;;;;;;;;5101773;28;20468;-77
2023/04/21 08:40:14;;;;;;;17.57;15.87;;;;;;;;;;5102165;28;20444;-75
2023/04/21 08:42:43;;;;;;;16.10;14.60;;;;;;;;;;5102999;28;20711;-78
2023/04/21 08:45:11;;;;;;;15.13;13.83;;;;;;;;;;5104721;28;20481;-74
2023/04/21 08:47:42;;;;;;;15.33;13.83;;;;;;;;;;5103198;28;20471;-76
2023/04/21 08:50:13;;;;;;;14.50;13.00;;;;;;;;;;5102719;28;20480;-77
2023/04/21 08:52:43;;;;;;;14.97;13.30;;;;;;;;;;5102110;28;20451;-76
2023/04/21 08:55:15;;;;;;;14.27;12.77;;;;;;;;;;5101993;28;20479;-78
2023/04/21 08:57:43;;;;;;;15.47;13.97;;;;;;;;;;5104263;28;20635;-76
2023/04/21 09:00:14;;;;;;;15.50;14.00;;;;;;;;;;5104450;28;20542;-77
2023/04/21 09:03:01;;;;;;;15.80;12.90;;;;;;;;;;5101690;28;20435;-74
2023/04/21 09:05:33;;;;;;;15.03;13.60;;;;;;;;;;5103908;28;20448;-76
2023/04/21 09:08:15;;;;;;;14.63;13.23;;;;;;;;;;5108987;28;20500;-77
2023/04/21 09:10:49;;;;;;;13.80;12.60;;;;;;;;;;5128922;28;20519;-76
2023/04/21 09:13:18;;;;;;;14.37;12.97;;;;;;;;;;5128166;28;20507;-76
2023/04/21 09:15:55;;;;;;;14.23;12.93;;;;;;;;;;5125827;28;20463;-76
2023/04/21 09:18:26;;;;;;;13.80;12.30;;;;;;;;;;5111929;28;20826;-75
2023/04/21 09:21:06;;;;;;;14.27;12.87;;;;;;;;;;5100189;28;20466;-77
2023/04/21 09:23:54;;;;;;;13.13;11.93;;;;;;;;;;5098622;28;20502;-76
2023/04/21 09:26:27;;;;;;;14.47;13.07;;;;;;;;;;5094229;28;20488;-77
2023/04/21 09:28:55;;;;;;;13.03;11.83;;;;;;;;;;5098053;28;20443;-75
2023/04/21 09:31:24;;;;;;;14.87;13.30;;;;;;;;;;5096372;28;20879;-78
2023/04/21 09:33:54;;;;;;;13.83;12.63;;;;;;;;;;5094254;28;20468;-77
2023/04/21 09:36:22;;;;;;;12.47;11.33;;;;;;;;;;5091370;28;20432;-77
2023/04/21 09:39:00;;;;;;;14.83;13.30;;;;;;;;;;5092110;28;20428;-76
2023/04/21 09:41:29;;;;;;;13.00;11.80;;;;;;;;;;5100840;28;20467;-76
2023/04/21 09:44:00;;;;;;;12.33;11.23;;;;;;;;;;5100524;28;20469;-77
2023/04/21 09:46:31;;;;;;;13.40;12.13;;;;;;;;;;5104336;28;20448;-75
2023/04/21 09:49:03;;;;;;;13.10;11.90;;;;;;;;;;5106108;28;20447;-77
2023/04/21 09:51:34;;;;;;;12.07;10.93;;;;;;;;;;5106025;28;20439;-75
2023/04/21 09:54:04;;;;;;;11.93;10.83;;;;;;;;;;5105561;28;20531;-77
2023/04/21 09:56:34;;;;;;;12.57;11.47;;;;;;;;;;5102664;28;20447;-77
2023/04/21 09:59:02;;;;;;;10.77;9.87;;;;;;;;;;5103690;28;20451;-75
2023/04/21 10:01:34;;;;;;;11.23;10.23;;;;;;;;;;5100910;28;20443;-77
2023/04/21 10:04:06;;;;;;;11.70;10.70;;;;;;;;;;5100739;28;20423;-77
2023/04/21 10:06:35;;;;;;;11.17;10.17;;;;;;;;;;5097515;28;20448;-75
2023/04/21 10:09:05;;;;;;;10.93;9.97;;;;;;;;;;5095566;28;20787;-77
2023/04/21 10:11:42;;;;;;;9.63;8.73;;;;;;;;;;5095599;28;20786;-76
2023/04/21 10:14:10;;;;;;;9.83;9.03;;;;;;;;;;5095379;28;20454;-76
2023/04/21 10:16:37;;;;;;;12.20;9.07;;;;;;;;;;5095182;28;20472;-76
2023/04/21 10:19:26;;;;;;;11.80;10.70;;;;;;;;;;5110225;28;20938;-76
2023/04/21 10:22:00;;;;;;;12.30;11.20;;;;;;;;;;5116961;28;20478;-78
2023/04/21 10:24:32;;;;;;;11.90;10.77;;;;;;;;;;5115642;28;20470;-76
2023/04/21 10:27:05;;;;;;;12.07;11.07;;;;;;;;;;5115833;28;20897;-75
2023/04/21 10:29:36;;;;;;;13.10;12.00;;;;;;;;;;5117445;28;20447;-76
2023/04/21 10:32:04;;;;;;;10.93;10.03;;;;;;;;;;5118732;28;20481;-74
2023/04/21 10:34:35;;;;;;;17.03;15.50;;;;;;;;;;5118719;28;20576;-77
2023/04/21 10:37:12;;;;;;;11.53;10.53;;;;;;;;;;5126721;28;20547;-75
2023/04/21 10:39:44;;;;;;;11.33;10.33;;;;;;;;;;5126042;28;20453;-76
2023/04/21 10:45:19;;;;;;;11.70;10.70;;;;;;;;;;5103818;28;20427;-74
2023/04/21 10:47:50;;;;;;;10.30;9.50;;;;;;;;;;5122587;28;20475;-76
2023/04/21 10:50:20;;;;;;;11.20;10.20;;;;;;;;;;5121970;28;20449;-75
2023/04/21 10:52:59;;;;;;;10.60;9.70;;;;;;;;;;5121543;28;20446;-74
2023/04/21 10:55:28;;;;;;;11.90;10.03;;;;;;;;;;5119623;28;20450;-77
2023/04/21 10:57:58;;;;;;;11.53;10.50;;;;;;;;;;5119413;28;20473;-75
2023/04/21 11:00:56;;;;;;;10.03;9.13;;;;;;;;;;5121740;28;20442;-76
2023/04/21 11:03:25;;;;;;;9.80;9.00;;;;;;;;;;5120629;28;20459;-75
2023/04/21 11:09:12;;;;;;;;;;;;;;;;;;;;;
2023/04/21 11:11:41;;;;;;;8.90;8.20;;;;;;;;;;5116427;28;20423;-76
2023/04/21 11:14:10;;;;;;;9.90;9.20;;;;;;;;;;5116420;28;20541;-76
2023/04/21 11:16:43;;;;;;;8.97;8.27;;;;;;;;;;5116420;28;20551;-75
2023/04/21 11:19:15;;;;;;;8.80;8.10;;;;;;;;;;5100102;28;20478;-78
2023/04/21 11:21:43;;;;;;;9.70;8.97;;;;;;;;;;5099736;28;20884;-75
2023/04/21 11:24:11;;;;;;;9.67;8.90;;;;;;;;;;5097383;28;20448;-75
2023/04/21 11:26:41;;;;;;;9.30;8.40;;;;;;;;;;5097707;28;20487;-74
2023/04/21 11:29:13;;;;;;;8.73;8.03;;;;;;;;;;5095012;28;20472;-75
2023/04/21 11:31:46;;;;;;;8.10;7.50;;;;;;;;;;5094863;28;20977;-75
2023/04/21 11:34:15;;;;;;;13.40;12.30;;;;;;;;;;5095643;28;20542;-75
2023/04/21 11:36:44;;;;;;;9.30;8.50;;;;;;;;;;5094897;28;20480;-75
2023/04/21 11:39:15;;;;;;;9.07;8.27;;;;;;;;;;5094652;28;20496;-76
2023/04/21 11:41:43;;;;;;;7.93;7.33;;;;;;;;;;5096767;28;20456;-77
2023/04/21 11:44:11;;;;;;;8.40;7.70;;;;;;;;;;5095570;28;20464;-77
2023/04/21 11:46:45;;;;;;;8.43;7.80;;;;;;;;;;5096102;28;20521;-78
2023/04/21 11:49:13;;;;;;;8.37;7.67;;;;;;;;;;5095249;28;20471;-75
2023/04/21 11:51:42;;;;;;;8.87;8.03;;;;;;;;;;5096932;28;20462;-76
2023/04/21 11:54:10;;;;;;;8.33;7.67;;;;;;;;;;5095887;28;20452;-76
2023/04/21 11:56:38;;;;;;;8.20;7.60;;;;;;;;;;5095841;28;20498;-75
2023/04/21 11:59:09;;;;;;;8.17;7.57;;;;;;;;;;5097754;28;20448;-74
2023/04/21 12:01:43;;;;;;;9.93;9.03;;;;;;;;;;5096275;28;20478;-76
2023/04/21 12:04:15;;;;;;;9.83;7.70;;;;;;;;;;5096038;28;20487;-74
2023/04/21 12:06:45;;;;;;;8.60;7.83;;;;;;;;;;5096212;28;20479;-73
2023/04/21 12:09:17;;;;;;;8.90;8.20;;;;;;;;;;5096158;28;20928;-76
2023/04/21 12:11:48;;;;;;;8.60;8.00;;;;;;;;;;5098351;28;20440;-75
2023/04/21 12:14:16;;;;;;;7.33;6.70;;;;;;;;;;5099295;28;20452;-76
2023/04/21 12:16:44;;;;;;;9.43;8.73;;;;;;;;;;5098884;28;20500;-75
2023/04/21 12:19:11;;;;;;;8.30;7.50;;;;;;;;;;5112822;28;20442;-76
2023/04/21 12:21:39;;;;;;;7.83;7.30;;;;;;;;;;5115888;28;20459;-75
2023/04/21 12:24:08;;;;;;;7.00;6.50;;;;;;;;;;5115670;28;20467;-76
2023/04/21 12:26:35;;;;;;;7.97;7.27;;;;;;;;;;5117068;28;20474;-75
2023/04/21 12:29:09;;;;;;;6.47;6.00;;;;;;;;;;5118496;28;20482;-75
2023/04/21 12:31:39;;;;;;;7.43;6.87;;;;;;;;;;5117725;28;20454;-75
2023/04/21 12:34:07;;;;;;;6.13;5.73;;;;;;;;;;5115132;28;20443;-74
2023/04/21 12:36:35;;;;;;;6.40;5.90;;;;;;;;;;5115439;28;21641;-75
2023/04/21 12:39:03;;;;;;;6.63;6.13;;;;;;;;;;5116471;28;20443;-74
2023/04/21 12:41:34;;;;;;;6.10;5.70;;;;;;;;;;5116662;28;20465;-75
2023/04/21 12:44:02;;;;;;;5.67;5.27;;;;;;;;;;5116204;28;20458;-76
2023/04/21 12:46:33;;;;;;;5.93;5.53;;;;;;;;;;5119633;28;20449;-75
2023/04/21 12:49:02;;;;;;;6.23;5.63;;;;;;;;;;5121646;28;20470;-76
2023/04/21 12:51:31;;;;;;;5.37;4.97;;;;;;;;;;5120504;28;20467;-75
2023/04/21 12:54:00;;;;;;;5.63;5.27;;;;;;;;;;5115709;28;20453;-77
2023/04/21 12:56:29;;;;;;;4.73;4.43;;;;;;;;;;5115964;28;20451;-78
2023/04/21 12:59:01;;;;;;;6.10;5.50;;;;;;;;;;5116649;28;20446;-79
2023/04/21 13:01:29;;;;;;;5.10;4.70;;;;;;;;;;5116306;28;20960;-76
2023/04/21 13:03:56;;;;;;;5.73;5.27;;;;;;;;;;5117794;28;20451;-76
2023/04/21 13:06:23;;;;;;;5.00;4.70;;;;;;;;;;5119024;28;20430;-79
2023/04/21 13:08:51;;;;;;;4.53;4.23;;;;;;;;;;5120414;28;20467;-75
2023/04/21 13:11:26;;;;;;;4.87;4.57;;;;;;;;;;5120488;28;20790;-77
2023/04/21 13:13:56;;;;;;;5.73;5.23;;;;;;;;;;5122290;28;20558;-75
2023/04/21 13:16:26;;;;;;;5.90;4.80;;;;;;;;;;5125689;28;20451;-76
2023/04/21 13:18:53;;;;;;;5.33;4.93;;;;;;;;;;5116328;28;20432;-76
2023/04/21 13:21:21;;;;;;;4.53;4.27;;;;;;;;;;5109413;28;20442;-76
2023/04/21 13:23:48;;;;;;;4.87;4.57;;;;;;;;;;5112069;28;20424;-75
2023/04/21 13:26:16;;;;;;;4.53;4.23;;;;;;;;;;5113443;28;20431;-74
2023/04/21 13:28:44;;;;;;;4.50;4.10;;;;;;;;;;5110356;28;20502;-76
2023/04/21 13:31:13;;;;;;;5.10;4.80;;;;;;;;;;5110834;28;20440;-74
2023/04/21 13:33:41;;;;;;;4.90;4.50;;;;;;;;;;5108972;28;20442;-74
2023/04/21 13:36:12;;;;;;;5.00;4.60;;;;;;;;;;5110240;28;20495;-75
2023/04/21 13:38:39;;;;;;;3.97;3.70;;;;;;;;;;5109446;28;20484;-77
2023/04/21 13:41:07;;;;;;;4.87;4.57;;;;;;;;;;5108838;28;20448;-75
2023/04/21 13:43:35;;;;;;;5.20;4.90;;;;;;;;;;5106891;28;20535;-75
2023/04/21 13:46:02;;;;;;;4.53;4.23;;;;;;;;;;5103625;28;20451;-76
2023/04/21 13:48:29;;;;;;;4.70;4.40;;;;;;;;;;5105748;28;20471;-74
2023/04/21 13:50:58;;;;;;;4.43;4.10;;;;;;;;;;5108564;28;20508;-74
2023/04/21 13:53:25;;;;;;;4.87;4.57;;;;;;;;;;5108330;28;20447;-76
2023/04/21 13:55:55;;;;;;;4.43;4.00;;;;;;;;;;5108294;28;20436;-76
2023/04/21 13:58:23;;;;;;;4.77;4.47;;;;;;;;;;5108515;28;20447;-75
2023/04/21 14:00:51;;;;;;;3.97;3.67;;;;;;;;;;5109145;28;20424;-76
2023/04/21 14:03:18;;;;;;;3.53;3.33;;;;;;;;;;5105980;28;20536;-76
2023/04/21 14:05:45;;;;;;;3.93;3.63;;;;;;;;;;5107248;28;21009;-75
2023/04/21 14:08:14;;;;;;;3.97;3.77;;;;;;;;;;5107019;28;20490;-77
2023/04/21 14:10:41;;;;;;;3.63;3.43;;;;;;;;;;5106296;28;20549;-78
2023/04/21 14:13:08;;;;;;;3.90;3.70;;;;;;;;;;5106647;28;20447;-75
2023/04/21 14:15:36;;;;;;;4.97;4.57;;;;;;;;;;5106787;28;20486;-76
2023/04/21 14:18:03;;;;;;;3.57;3.37;;;;;;;;;;5111064;28;20458;-76
2023/04/21 14:20:31;;;;;;;4.27;3.97;;;;;;;;;;5127532;28;20435;-75
2023/04/21 14:22:58;;;;;;;4.50;4.20;;;;;;;;;;5128412;28;20468;-77
2023/04/21 14:25:27;;;;;;;3.73;3.43;;;;;;;;;;5123800;28;20529;-76
2023/04/21 14:27:55;;;;;;;3.70;3.50;;;;;;;;;;5125025;28;20778;-77
2023/04/21 14:30:22;;;;;;;4.60;4.30;;;;;;;;;;5124746;28;20458;-75
2023/04/21 14:32:50;;;;;;;3.10;2.90;;;;;;;;;;5125116;28;20427;-76
2023/04/21 14:35:17;;;;;;;4.43;3.37;;;;;;;;;;5130386;28;20504;-76
2023/04/21 14:37:45;;;;;;;3.70;3.47;;;;;;;;;;5127227;28;20585;-74
2023/04/21 14:40:12;;;;;;;2.90;2.80;;;;;;;;;;5125995;28;20530;-76
2023/04/21 14:42:41;;;;;;;3.37;3.17;;;;;;;;;;5125878;28;20424;-77
2023/04/21 14:45:09;;;;;;;3.00;2.80;;;;;;;;;;5127584;28;20489;-74
2023/04/21 14:47:37;;;;;;;3.17;2.97;;;;;;;;;;5125542;28;20485;-75
2023/04/21 14:50:05;;;;;;;3.77;3.50;;;;;;;;;;5126678;28;20902;-75
2023/04/21 14:52:33;;;;;;;3.90;3.70;;;;;;;;;;5125303;28;20446;-74
2023/04/21 14:55:02;;;;;;;3.23;3.07;;;;;;;;;;5124509;28;20435;-77
2023/04/21 14:57:30;;;;;;;3.80;3.50;;;;;;;;;;5121037;28;20500;-75
2023/04/21 14:59:58;;;;;;;2.90;2.70;;;;;;;;;;5121559;28;20454;-75
2023/04/21 15:02:26;;;;;;;4.20;3.90;;;;;;;;;;5121509;28;20450;-76
2023/04/21 15:04:54;;;;;;;2.27;2.10;;;;;;;;;;5121262;28;20437;-74
2023/04/21 15:07:21;;;;;;;2.43;2.33;;;;;;;;;;5123851;28;20815;-74
2023/04/21 15:09:49;;;;;;;2.70;2.60;;;;;;;;;;5123272;28;20471;-74
2023/04/21 15:12:17;;;;;;;2.50;2.30;;;;;;;;;;5122563;28;20477;-76
2023/04/21 15:14:45;;;;;;;2.73;2.37;;;;;;;;;;5123700;28;20478;-76
2023/04/21 15:17:14;;;;;;;3.07;2.80;;;;;;;;;;5123926;28;20470;-75
2023/04/21 15:19:41;;;;;;;2.77;2.50;;;;;;;;;;5102741;28;20506;-77
2023/04/21 15:22:10;;;;;;;3.07;2.87;;;;;;;;;;5102070;28;20822;-77
2023/04/21 15:24:38;;;;;;;2.57;2.40;;;;;;;;;;5102291;28;20458;-77
2023/04/21 15:27:06;;;;;;;2.77;2.57;;;;;;;;;;5102082;28;20467;-76